Time;durP1;ratioP1;P1;durP2;ratioP2;P2;SDS_P1;SDS_P2;PMS_P1;PMS_P2;Temp;Humidity;BMP_temperature;BMP_pressure;BME280_temperature;BME280_humidity;BME280_pressure;Samples;Min_cycle;Max_cycle;Signal;HPM_P1;HPM_P2
2021/11/21 00:01:14;;;;;;;24.17;12.52;;;9.10;99.90;;;;;;5011831;28;20054;-86
2021/11/21 00:03:43;;;;;;;25.13;12.15;;;9.10;99.90;;;;;;4978178;28;20043;-86
2021/11/21 00:06:08;;;;;;;27.60;12.52;;;9.10;99.90;;;;;;4972662;28;20119;-86
2021/11/21 00:08:34;;;;;;;32.22;12.88;;;9.10;99.90;;;;;;5008581;28;20093;-86
2021/11/21 00:11:00;;;;;;;23.23;12.00;;;9.10;99.90;;;;;;4991470;28;20041;-86
2021/11/21 00:13:26;;;;;;;25.02;13.82;;;9.10;99.90;;;;;;5008220;28;20041;-85
2021/11/21 00:15:52;;;;;;;30.80;13.23;;;9.10;99.90;;;;;;4991226;28;20052;-87
2021/11/21 00:18:18;;;;;;;25.23;12.25;;;9.10;99.90;;;;;;4995910;28;22163;-89
2021/11/21 00:20:45;;;;;;;27.45;13.50;;;9.10;99.90;;;;;;4995459;28;20040;-86
2021/11/21 00:23:19;;;;;;;25.83;12.27;;;9.10;99.90;;;;;;4995064;28;20043;-86
2021/11/21 00:25:45;;;;;;;24.95;12.38;;;9.10;99.90;;;;;;5009849;28;20124;-84
2021/11/21 00:28:11;;;;;;;28.52;12.02;;;9.10;99.90;;;;;;4993744;28;20120;-84
2021/11/21 00:30:37;;;;;;;23.70;11.68;;;9.10;99.90;;;;;;5007587;28;20045;-87
2021/11/21 00:33:17;;;;;;;21.17;11.30;;;9.10;99.90;;;;;;4994998;28;20115;-86
2021/11/21 00:35:46;;;;;;;25.88;11.75;;;9.10;99.90;;;;;;4999590;28;20068;-85
2021/11/21 00:38:13;;;;;;;30.13;13.23;;;9.10;99.90;;;;;;5009389;28;20041;-86
2021/11/21 00:41:00;;;;;;;28.40;12.73;;;9.10;99.90;;;;;;5006436;28;20605;-86
2021/11/21 00:43:25;;;;;;;24.20;12.57;;;9.10;99.90;;;;;;5022680;28;20063;-82
2021/11/21 00:45:50;;;;;;;29.45;14.43;;;9.10;99.90;;;;;;5011832;28;20033;-85
2021/11/21 00:48:21;;;;;;;31.48;15.18;;;9.10;99.90;;;;;;4993352;28;20063;-85
2021/11/21 00:50:50;;;;;;;31.42;16.23;;;9.10;99.90;;;;;;4993816;28;20058;-82
2021/11/21 00:53:16;;;;;;;36.10;17.00;;;9.10;99.90;;;;;;4995362;28;20460;-86
2021/11/21 00:55:47;;;;;;;32.75;17.48;;;9.10;99.90;;;;;;5028926;28;20044;-86
2021/11/21 00:58:16;;;;;;;32.70;18.30;;;9.10;99.90;;;;;;5030371;28;20048;-88
2021/11/21 01:00:49;;;;;;;38.75;20.30;;;9.10;99.90;;;;;;5017415;28;20048;-87
2021/11/21 01:03:20;;;;;;;35.60;20.07;;;9.10;99.90;;;;;;5002089;28;20105;-86
2021/11/21 01:05:47;;;;;;;44.10;19.52;;;9.10;99.90;;;;;;5008301;28;20033;-86
2021/11/21 01:08:14;;;;;;;40.60;20.00;;;9.10;99.90;;;;;;5010711;28;20044;-86
2021/11/21 01:11:06;;;;;;;38.38;20.70;;;9.10;99.90;;;;;;5007926;28;20039;-87
2021/11/21 01:13:37;;;;;;;43.63;21.23;;;9.10;99.90;;;;;;5005323;28;20053;-86
2021/11/21 01:16:14;;;;;;;;;;;;;;;;;;;;;
2021/11/21 01:18:40;;;;;;;48.58;21.73;;;9.10;99.90;;;;;;5012239;28;20048;-86
2021/11/21 01:21:06;;;;;;;44.70;21.60;;;9.10;99.90;;;;;;5013060;28;20029;-84
2021/11/21 01:23:32;;;;;;;46.72;22.05;;;9.10;99.90;;;;;;4994611;28;20128;-85
2021/11/21 01:25:58;;;;;;;47.78;22.95;;;9.00;99.90;;;;;;5005559;28;20140;-87
2021/11/21 01:28:25;;;;;;;40.92;20.90;;;9.00;99.90;;;;;;5008756;28;20571;-86
2021/11/21 01:30:54;;;;;;;44.33;21.50;;;9.00;99.90;;;;;;5009548;28;20043;-86
2021/11/21 01:33:20;;;;;;;47.30;22.50;;;9.00;99.90;;;;;;4993352;28;20033;-88
2021/11/21 01:35:46;;;;;;;45.55;21.55;;;9.10;99.90;;;;;;5011044;28;20051;-86
2021/11/21 01:38:14;;;;;;;48.25;22.77;;;9.10;99.90;;;;;;5025032;28;20067;-82
2021/11/21 01:40:40;;;;;;;46.10;22.25;;;9.10;99.90;;;;;;4991878;28;20049;-87
2021/11/21 01:43:07;;;;;;;45.78;22.65;;;9.00;99.90;;;;;;5007965;28;20098;-84
2021/11/21 01:45:33;;;;;;;45.42;22.17;;;9.10;99.90;;;;;;4990713;28;20037;-88
2021/11/21 01:47:59;;;;;;;42.30;22.75;;;9.10;99.90;;;;;;5020480;28;20984;-88
2021/11/21 01:50:35;;;;;;;52.47;23.63;;;9.00;99.90;;;;;;4990708;28;20120;-88
2021/11/21 01:53:01;;;;;;;46.78;22.10;;;9.00;99.90;;;;;;5012302;28;20068;-89
2021/11/21 01:55:28;;;;;;;53.47;22.30;;;9.00;99.90;;;;;;5001256;28;20044;-88
2021/11/21 01:57:55;;;;;;;40.22;19.77;;;9.00;99.90;;;;;;5004991;28;20047;-89
2021/11/21 02:00:23;;;;;;;47.13;19.92;;;9.10;99.90;;;;;;5007579;28;20048;-87
2021/11/21 02:02:49;;;;;;;47.55;21.02;;;9.00;99.90;;;;;;5011994;28;20117;-89
2021/11/21 02:05:15;;;;;;;38.55;20.00;;;9.10;99.90;;;;;;4992710;28;20136;-88
2021/11/21 02:07:46;;;;;;;44.65;20.55;;;9.10;99.90;;;;;;5005235;28;20041;-86
2021/11/21 02:10:15;;;;;;;44.00;19.85;;;9.10;99.90;;;;;;4987447;28;20395;-89
2021/11/21 02:12:41;;;;;;;43.60;19.55;;;9.10;99.90;;;;;;5005067;28;20121;-87
2021/11/21 02:15:10;;;;;;;48.67;21.63;;;9.10;99.90;;;;;;5005774;28;20561;-86
2021/11/21 02:17:36;;;;;;;50.05;21.08;;;9.10;99.90;;;;;;5020958;28;20127;-89
2021/11/21 02:20:05;;;;;;;51.45;20.77;;;9.10;99.90;;;;;;4989201;28;20139;-89
2021/11/21 02:22:31;;;;;;;48.75;19.63;;;9.10;99.90;;;;;;5009553;28;20433;-88
2021/11/21 02:24:57;;;;;;;59.53;21.38;;;9.10;99.90;;;;;;4990977;28;20037;-87
2021/11/21 02:27:27;;;;;;;62.33;22.65;;;9.10;99.90;;;;;;5005687;28;20595;-89
2021/11/21 02:29:53;;;;;;;55.75;21.40;;;9.10;99.90;;;;;;5005163;28;20063;-86
2021/11/21 02:32:19;;;;;;;61.67;21.27;;;9.10;99.90;;;;;;5008772;28;20077;-86
2021/11/21 02:34:45;;;;;;;45.28;19.13;;;9.10;99.90;;;;;;5003549;28;20489;-87
2021/11/21 02:37:11;;;;;;;62.17;20.75;;;9.00;99.90;;;;;;4992435;28;20037;-86
2021/11/21 02:39:38;;;;;;;77.93;22.48;;;9.00;99.90;;;;;;4980416;28;20438;-87
2021/11/21 02:42:04;;;;;;;80.75;22.10;;;9.00;99.90;;;;;;4987649;28;20368;-86
2021/11/21 02:44:31;;;;;;;59.40;20.17;;;9.00;99.90;;;;;;5002886;28;20039;-86
2021/11/21 02:46:56;;;;;;;75.55;22.02;;;9.10;99.90;;;;;;4991033;28;20040;-88
2021/11/21 02:49:22;;;;;;;80.82;21.70;;;9.00;99.90;;;;;;5009607;28;20084;-86
2021/11/21 02:51:48;;;;;;;73.80;21.15;;;9.10;99.90;;;;;;5011447;28;20036;-85
2021/11/21 02:54:14;;;;;;;85.85;21.50;;;9.10;99.90;;;;;;4994541;28;20388;-85
2021/11/21 02:56:40;;;;;;;62.25;19.83;;;9.00;99.90;;;;;;4975891;28;20048;-86
2021/11/21 02:59:06;;;;;;;49.03;15.63;;;9.00;99.90;;;;;;4992607;28;20156;-84
2021/11/21 03:01:32;;;;;;;55.75;14.85;;;9.10;99.90;;;;;;4986718;28;20037;-85
2021/11/21 03:03:58;;;;;;;36.15;11.43;;;9.10;99.90;;;;;;4988234;28;25364;-85
2021/11/21 03:06:26;;;;;;;38.75;11.57;;;9.10;99.90;;;;;;4987961;28;20336;-86
2021/11/21 03:08:53;;;;;;;33.03;10.57;;;9.10;99.90;;;;;;5004044;28;20522;-85
2021/11/21 03:11:32;;;;;;;36.58;11.15;;;9.00;99.90;;;;;;5028711;28;20407;-85
2021/11/21 03:14:01;;;;;;;40.38;11.40;;;9.10;99.90;;;;;;5012269;28;20126;-84
2021/11/21 03:16:27;;;;;;;36.42;9.75;;;9.00;99.90;;;;;;4997107;28;20227;-84
2021/11/21 03:18:53;;;;;;;32.38;10.15;;;9.00;99.90;;;;;;4991473;28;20033;-84
2021/11/21 03:21:19;;;;;;;28.92;9.65;;;9.00;99.90;;;;;;4995829;28;20132;-84
2021/11/21 03:23:45;;;;;;;28.65;9.02;;;9.00;99.90;;;;;;5009296;28;20036;-85
2021/11/21 03:26:12;;;;;;;25.00;8.60;;;9.00;99.90;;;;;;5026013;28;20041;-84
2021/11/21 03:28:38;;;;;;;25.92;8.48;;;9.00;99.90;;;;;;5006326;28;20095;-85
2021/11/21 03:31:04;;;;;;;33.55;9.18;;;9.00;99.90;;;;;;4992611;28;20041;-84
2021/11/21 03:33:31;;;;;;;33.17;8.77;;;9.00;99.90;;;;;;4990979;28;20036;-84
2021/11/21 03:35:56;;;;;;;32.47;8.65;;;9.00;99.90;;;;;;5008911;28;20043;-85
2021/11/21 03:38:22;;;;;;;26.60;7.78;;;9.00;99.90;;;;;;4976441;28;20040;-85
2021/11/21 03:40:48;;;;;;;45.33;8.73;;;9.00;99.90;;;;;;5001932;28;20049;-84
2021/11/21 03:43:14;;;;;;;22.83;7.47;;;9.00;99.90;;;;;;4993517;28;20041;-85
2021/11/21 03:45:40;;;;;;;24.88;7.40;;;9.00;99.90;;;;;;4991382;28;20033;-84
2021/11/21 03:48:06;;;;;;;24.42;8.15;;;9.00;99.90;;;;;;5010451;28;20041;-84
2021/11/21 03:50:32;;;;;;;33.83;8.88;;;9.00;99.90;;;;;;5010472;28;20099;-85
2021/11/21 03:52:58;;;;;;;28.10;8.60;;;8.90;99.90;;;;;;4993131;28;20486;-85
2021/11/21 03:55:25;;;;;;;29.63;8.70;;;8.90;99.90;;;;;;5011422;28;20115;-85
2021/11/21 03:57:50;;;;;;;25.90;8.15;;;8.90;99.90;;;;;;4995787;28;20403;-85
2021/11/21 04:00:21;;;;;;;32.83;9.07;;;8.90;99.90;;;;;;4994986;28;20045;-85
2021/11/21 04:02:48;;;;;;;36.05;9.25;;;8.90;99.90;;;;;;5000301;28;20269;-85
2021/11/21 04:05:16;;;;;;;34.72;9.13;;;8.90;99.90;;;;;;4992439;28;20072;-85
2021/11/21 04:07:42;;;;;;;35.78;9.30;;;8.90;99.90;;;;;;5009410;28;20104;-85
2021/11/21 04:10:09;;;;;;;35.25;8.68;;;8.90;99.90;;;;;;5006506;28;20491;-85
2021/11/21 04:12:35;;;;;;;33.47;8.55;;;8.90;99.90;;;;;;4994151;28;20119;-85
2021/11/21 04:15:02;;;;;;;32.85;9.43;;;8.90;99.90;;;;;;4993346;28;20228;-85
2021/11/21 04:17:28;;;;;;;29.80;8.57;;;8.90;99.90;;;;;;5008139;28;20505;-85
2021/11/21 04:19:54;;;;;;;30.42;7.53;;;8.90;99.90;;;;;;5008897;28;20036;-86
2021/11/21 04:22:20;;;;;;;26.95;8.00;;;8.90;99.90;;;;;;5008128;28;20037;-86
2021/11/21 04:24:46;;;;;;;29.02;7.80;;;8.80;99.90;;;;;;5027266;28;20044;-85
2021/11/21 04:27:12;;;;;;;26.13;7.53;;;8.90;99.90;;;;;;4988338;28;20041;-85
2021/11/21 04:29:38;;;;;;;27.73;6.28;;;8.90;99.90;;;;;;4995000;28;20124;-86
2021/11/21 04:32:05;;;;;;;31.30;7.15;;;8.90;99.90;;;;;;4992574;28;20128;-86
2021/11/21 04:34:31;;;;;;;25.20;6.88;;;8.90;99.90;;;;;;5009254;28;20040;-86
2021/11/21 04:36:59;;;;;;;30.85;7.53;;;8.80;99.90;;;;;;4995541;28;20052;-85
2021/11/21 04:39:26;;;;;;;38.92;7.63;;;8.80;99.90;;;;;;4996312;28;20072;-86
2021/11/21 04:41:53;;;;;;;33.55;7.20;;;8.80;99.90;;;;;;4986990;28;20048;-85
2021/11/21 04:44:19;;;;;;;28.75;7.03;;;8.80;99.90;;;;;;4991889;28;20368;-86
2021/11/21 04:46:45;;;;;;;25.20;6.53;;;8.80;99.90;;;;;;5004868;28;20040;-85
2021/11/21 04:49:11;;;;;;;26.83;6.95;;;8.80;99.90;;;;;;5008891;28;20048;-85
2021/11/21 04:51:36;;;;;;;28.52;6.55;;;8.80;99.90;;;;;;5009101;28;20045;-85
2021/11/21 04:54:04;;;;;;;27.25;6.45;;;8.80;99.90;;;;;;4991411;28;20049;-86
2021/11/21 04:56:30;;;;;;;32.97;6.90;;;8.80;99.90;;;;;;5005675;28;20044;-86
2021/11/21 04:58:56;;;;;;;32.17;6.70;;;8.80;99.90;;;;;;4991312;28;20043;-84
2021/11/21 05:01:22;;;;;;;30.20;7.25;;;8.80;99.90;;;;;;5001538;28;20033;-85
2021/11/21 05:03:47;;;;;;;26.85;6.47;;;8.80;99.90;;;;;;5005072;28;20037;-85
2021/11/21 05:06:14;;;;;;;18.98;5.65;;;8.80;99.90;;;;;;4989270;28;20044;-86
2021/11/21 05:08:39;;;;;;;32.25;6.72;;;8.80;99.90;;;;;;5004253;28;20043;-86
2021/11/21 05:11:05;;;;;;;32.33;6.25;;;8.80;99.90;;;;;;5022267;28;20044;-85
2021/11/21 05:13:31;;;;;;;27.27;4.95;;;8.80;99.90;;;;;;4991840;28;20044;-86
2021/11/21 05:15:57;;;;;;;32.22;5.68;;;8.80;99.90;;;;;;4992076;28;20072;-87
2021/11/21 05:18:22;;;;;;;22.20;4.68;;;8.80;99.90;;;;;;4973275;28;20333;-86
2021/11/21 05:20:48;;;;;;;18.38;4.38;;;8.80;99.90;;;;;;4970829;28;20065;-89
2021/11/21 05:23:14;;;;;;;25.08;4.60;;;8.80;99.90;;;;;;4987864;28;20503;-86
2021/11/21 05:25:40;;;;;;;19.35;3.50;;;8.80;99.90;;;;;;4993374;28;20044;-86
2021/11/21 05:28:05;;;;;;;16.92;3.92;;;8.80;99.90;;;;;;5020739;28;20044;-87
2021/11/21 05:30:31;;;;;;;27.42;4.30;;;8.70;99.90;;;;;;4991857;28;20072;-87
2021/11/21 05:32:57;;;;;;;19.83;3.25;;;8.70;99.90;;;;;;4990098;28;20045;-86
2021/11/21 05:35:24;;;;;;;23.20;3.63;;;8.70;99.90;;;;;;4990440;28;20047;-86
2021/11/21 05:37:51;;;;;;;31.05;3.78;;;8.70;99.90;;;;;;5006614;28;20533;-88
2021/11/21 05:40:18;;;;;;;19.02;3.47;;;8.60;99.90;;;;;;5007551;28;20047;-86
2021/11/21 05:42:44;;;;;;;25.38;3.63;;;8.60;99.90;;;;;;4998170;28;20132;-88
2021/11/21 05:45:10;;;;;;;24.88;3.72;;;8.60;99.90;;;;;;4991334;28;20199;-86
2021/11/21 05:47:36;;;;;;;22.60;3.60;;;8.60;99.90;;;;;;4989538;28;20082;-86
2021/11/21 05:50:03;;;;;;;20.08;3.83;;;8.60;99.90;;;;;;4992768;28;20038;-87
2021/11/21 05:52:29;;;;;;;22.30;3.47;;;8.60;99.90;;;;;;5007435;28;20029;-86
2021/11/21 05:54:55;;;;;;;22.25;3.42;;;8.60;99.90;;;;;;4976326;28;20033;-86
2021/11/21 05:57:21;;;;;;;19.38;3.10;;;8.50;99.90;;;;;;4990967;28;20535;-86
2021/11/21 05:59:47;;;;;;;27.80;3.92;;;8.50;99.90;;;;;;5008169;28;20072;-88
2021/11/21 06:02:13;;;;;;;18.45;2.80;;;8.50;99.90;;;;;;4987932;28;20352;-86
2021/11/21 06:04:39;;;;;;;28.77;3.20;;;8.50;99.90;;;;;;4990272;28;20033;-86
2021/11/21 06:07:04;;;;;;;24.48;3.35;;;8.50;99.90;;;;;;4991900;28;20833;-87
2021/11/21 06:09:30;;;;;;;23.38;2.90;;;8.50;99.90;;;;;;4993065;28;20048;-88
2021/11/21 06:11:56;;;;;;;23.38;2.75;;;8.40;99.90;;;;;;4986029;28;20040;-88
2021/11/21 06:14:22;;;;;;;17.00;2.92;;;8.40;99.90;;;;;;4973282;28;20116;-87
2021/11/21 06:16:48;;;;;;;15.52;2.25;;;8.40;99.90;;;;;;4994449;28;20047;-86
2021/11/21 06:19:14;;;;;;;23.98;2.95;;;8.40;99.90;;;;;;4993337;28;20053;-87
2021/11/21 06:21:40;;;;;;;22.23;2.80;;;8.30;99.90;;;;;;4994868;28;20041;-86
2021/11/21 06:24:07;;;;;;;17.13;2.42;;;8.30;99.90;;;;;;4998085;28;20091;-88
2021/11/21 06:26:34;;;;;;;14.82;2.20;;;8.30;99.90;;;;;;4992820;28;20086;-87
2021/11/21 06:28:59;;;;;;;17.55;1.88;;;8.20;99.90;;;;;;5010837;28;20495;-86
2021/11/21 06:31:25;;;;;;;24.13;2.17;;;8.20;99.90;;;;;;4995863;28;20044;-87
2021/11/21 06:33:51;;;;;;;19.13;2.33;;;8.20;99.90;;;;;;4996231;28;20048;-87
2021/11/21 06:36:17;;;;;;;20.10;1.80;;;8.10;99.90;;;;;;4999503;28;20063;-87
2021/11/21 06:38:43;;;;;;;13.63;1.70;;;8.10;99.90;;;;;;4994486;28;20468;-87
2021/11/21 06:41:09;;;;;;;21.75;1.98;;;8.10;99.90;;;;;;4978265;28;20037;-88
2021/11/21 06:43:35;;;;;;;10.75;1.63;;;8.00;99.90;;;;;;4991422;28;20466;-87
2021/11/21 06:46:00;;;;;;;19.90;1.90;;;7.90;99.90;;;;;;4993136;28;20123;-87
2021/11/21 06:48:26;;;;;;;23.20;2.65;;;7.90;99.90;;;;;;4971717;28;20398;-87
2021/11/21 06:50:53;;;;;;;22.50;2.35;;;7.80;99.90;;;;;;4994546;28;20049;-88
2021/11/21 06:53:23;;;;;;;15.68;1.55;;;7.70;99.90;;;;;;4979975;28;20487;-88
2021/11/21 06:55:49;;;;;;;26.45;2.03;;;7.70;99.90;;;;;;5017935;28;20036;-87
2021/11/21 06:58:15;;;;;;;20.98;2.10;;;7.70;99.90;;;;;;5012421;28;20701;-86
2021/11/21 07:00:42;;;;;;;21.55;2.78;;;7.60;99.90;;;;;;5012192;28;20044;-87
2021/11/21 07:03:08;;;;;;;24.13;1.95;;;7.50;99.90;;;;;;5011732;28;20033;-88
2021/11/21 07:05:34;;;;;;;26.45;2.05;;;7.50;99.90;;;;;;4984308;28;20502;-86
2021/11/21 07:08:01;;;;;;;21.05;1.92;;;7.40;99.90;;;;;;5001717;28;20034;-87
2021/11/21 07:10:27;;;;;;;21.25;2.08;;;7.30;99.90;;;;;;5010444;28;20498;-87
2021/11/21 07:12:53;;;;;;;17.90;1.55;;;7.30;99.90;;;;;;5023728;28;20037;-88
2021/11/21 07:15:19;;;;;;;23.45;2.47;;;7.20;99.90;;;;;;5011001;28;20067;-87
2021/11/21 07:17:51;;;;;;;20.23;2.25;;;7.20;99.90;;;;;;4996481;28;20546;-86
2021/11/21 07:20:18;;;;;;;31.77;2.25;;;7.10;99.90;;;;;;5005931;28;20044;-87
2021/11/21 07:22:49;;;;;;;22.40;1.98;;;7.10;99.90;;;;;;4996452;28;20045;-85
2021/11/21 07:25:17;;;;;;;24.98;2.08;;;7.10;99.90;;;;;;5028196;28;20033;-85
2021/11/21 07:27:43;;;;;;;27.20;2.70;;;7.10;99.90;;;;;;5013003;28;20037;-88
2021/11/21 07:30:14;;;;;;;21.83;1.90;;;7.10;99.90;;;;;;5013317;28;20029;-86
2021/11/21 07:32:41;;;;;;;26.15;2.53;;;7.10;99.90;;;;;;4991290;28;20040;-87
2021/11/21 07:35:08;;;;;;;21.95;2.70;;;7.10;99.90;;;;;;4998050;28;20046;-89
2021/11/21 07:37:34;;;;;;;21.20;2.08;;;7.00;99.90;;;;;;4992011;28;20044;-88
2021/11/21 07:40:00;;;;;;;19.80;1.95;;;7.00;99.90;;;;;;5011017;28;20071;-85
2021/11/21 07:42:26;;;;;;;20.40;2.35;;;7.00;99.90;;;;;;5001065;28;20116;-86
2021/11/21 07:44:53;;;;;;;20.80;2.38;;;7.00;99.90;;;;;;4995626;28;20164;-88
2021/11/21 07:47:19;;;;;;;21.92;2.10;;;6.90;99.90;;;;;;4981362;28;20040;-85
2021/11/21 07:49:45;;;;;;;33.17;2.22;;;6.90;99.90;;;;;;4992244;28;20867;-88
2021/11/21 07:52:11;;;;;;;21.05;1.70;;;6.90;99.90;;;;;;4992746;28;20041;-87
2021/11/21 07:54:37;;;;;;;26.65;1.90;;;6.80;99.90;;;;;;4971964;28;20033;-88
2021/11/21 07:57:03;;;;;;;21.13;2.25;;;6.80;99.90;;;;;;4995920;28;20037;-89
2021/11/21 07:59:29;;;;;;;22.52;1.77;;;6.80;99.90;;;;;;5010080;28;20033;-88
2021/11/21 08:01:55;;;;;;;27.70;2.60;;;6.70;99.90;;;;;;4997613;28;20040;-90
2021/11/21 08:04:20;;;;;;;17.30;2.15;;;6.70;99.90;;;;;;4996189;28;20033;-86
2021/11/21 08:06:46;;;;;;;29.40;2.90;;;6.70;99.90;;;;;;4998315;28;20033;-87
2021/11/21 08:09:13;;;;;;;26.92;2.55;;;6.70;99.90;;;;;;4987694;28;20041;-85
2021/11/21 08:11:40;;;;;;;19.60;2.00;;;6.70;99.90;;;;;;4995881;28;20040;-87
2021/11/21 08:14:06;;;;;;;21.58;2.88;;;6.60;99.90;;;;;;5012930;28;20127;-87
2021/11/21 08:16:32;;;;;;;19.85;2.63;;;6.60;99.90;;;;;;5013693;28;20178;-87
2021/11/21 08:18:57;;;;;;;31.77;4.60;;;6.60;99.90;;;;;;4996797;28;20041;-85
2021/11/21 08:21:23;;;;;;;25.63;4.38;;;6.60;99.90;;;;;;5009365;28;20041;-88
2021/11/21 08:23:51;;;;;;;27.10;3.90;;;6.60;99.90;;;;;;4997956;28;20037;-86
2021/11/21 08:26:18;;;;;;;24.20;3.20;;;6.70;99.90;;;;;;5005141;28;20033;-87
2021/11/21 08:28:44;;;;;;;25.88;3.50;;;6.70;99.90;;;;;;5017343;28;20044;-87
2021/11/21 08:31:10;;;;;;;27.23;3.60;;;6.70;99.90;;;;;;5000416;28;20403;-88
2021/11/21 08:33:36;;;;;;;17.65;2.80;;;6.70;99.90;;;;;;5032679;28;20127;-87
2021/11/21 08:36:03;;;;;;;18.85;2.25;;;6.70;99.90;;;;;;5009145;28;20033;-87
2021/11/21 08:38:34;;;;;;;27.33;2.78;;;6.70;99.90;;;;;;4995524;28;20037;-90
2021/11/21 08:41:06;;;;;;;25.90;3.17;;;6.70;99.90;;;;;;5008737;28;20044;-86
2021/11/21 08:43:31;;;;;;;23.30;2.92;;;6.70;99.90;;;;;;4995259;28;20377;-89
2021/11/21 08:45:57;;;;;;;29.80;2.97;;;6.70;99.90;;;;;;5004243;28;20043;-88
2021/11/21 08:48:26;;;;;;;19.88;2.33;;;6.70;99.90;;;;;;5006152;28;20032;-87
2021/11/21 08:50:53;;;;;;;17.25;1.92;;;6.80;99.90;;;;;;4997515;28;20047;-88
2021/11/21 08:53:20;;;;;;;20.27;2.15;;;6.70;99.90;;;;;;5004446;28;20510;-88
2021/11/21 08:55:46;;;;;;;24.02;2.55;;;6.80;99.90;;;;;;5011328;28;20037;-87
2021/11/21 08:58:12;;;;;;;21.30;2.13;;;6.80;99.90;;;;;;5008118;28;20069;-86
2021/11/21 09:00:38;;;;;;;18.85;3.05;;;6.80;99.90;;;;;;5011360;28;20091;-87
2021/11/21 09:03:06;;;;;;;19.73;2.42;;;6.90;99.90;;;;;;5010987;28;20040;-88
2021/11/21 09:05:35;;;;;;;32.25;2.45;;;6.90;99.90;;;;;;4997315;28;20147;-88
2021/11/21 09:08:08;;;;;;;21.77;2.78;;;7.00;99.90;;;;;;5009150;28;20048;-89
2021/11/21 09:10:34;;;;;;;19.80;3.45;;;7.10;99.90;;;;;;4997661;28;20068;-87
2021/11/21 09:13:08;;;;;;;27.98;4.72;;;7.10;99.90;;;;;;5014826;28;20430;-89
2021/11/21 09:15:34;;;;;;;22.50;3.35;;;7.10;99.90;;;;;;5014958;28;20060;-87
2021/11/21 09:18:01;;;;;;;27.40;2.92;;;7.20;99.90;;;;;;5010476;28;20037;-86
2021/11/21 09:20:27;;;;;;;26.17;3.17;;;7.20;99.90;;;;;;5011706;28;20095;-88
2021/11/21 09:22:54;;;;;;;23.95;2.70;;;7.20;99.90;;;;;;4995266;28;20563;-87
2021/11/21 09:25:26;;;;;;;26.95;2.15;;;7.30;99.90;;;;;;4995043;28;20071;-87
2021/11/21 09:27:57;;;;;;;23.42;2.45;;;7.30;99.90;;;;;;5010750;28;20041;-88
2021/11/21 09:30:26;;;;;;;18.83;2.22;;;7.40;99.90;;;;;;4991358;28;20032;-89
2021/11/21 09:33:06;;;;;;;;;;;;;;;;;;;;;
2021/11/21 09:35:35;;;;;;;17.00;2.22;;;7.50;99.90;;;;;;5009274;28;20041;-89
2021/11/21 09:38:01;;;;;;;15.52;2.50;;;7.50;99.90;;;;;;5018879;28;20040;-87
2021/11/21 09:40:27;;;;;;;16.85;2.47;;;7.50;99.90;;;;;;4995629;28;20048;-86
2021/11/21 09:42:53;;;;;;;22.95;2.13;;;7.60;99.90;;;;;;4994165;28;20388;-89
2021/11/21 09:45:19;;;;;;;16.52;1.80;;;7.60;99.90;;;;;;5007398;28;20036;-86
2021/11/21 09:48:08;;;;;;;14.95;1.90;;;7.70;99.90;;;;;;5010850;28;20041;-87
2021/11/21 09:50:40;;;;;;;15.10;1.67;;;7.70;99.90;;;;;;5001260;28;20049;-87
2021/11/21 09:53:10;;;;;;;14.45;1.77;;;7.80;99.90;;;;;;5008103;28;20073;-87
2021/11/21 09:55:37;;;;;;;16.98;1.90;;;7.80;99.90;;;;;;5012024;28;20055;-85
2021/11/21 09:58:04;;;;;;;19.35;2.10;;;7.90;99.90;;;;;;4995629;28;20076;-85
2021/11/21 10:00:34;;;;;;;13.05;1.90;;;7.90;99.90;;;;;;4996696;28;20128;-88
2021/11/21 10:03:11;;;;;;;20.85;2.42;;;8.00;99.90;;;;;;5011720;28;20106;-87
2021/11/21 10:05:47;;;;;;;23.38;2.28;;;8.10;99.90;;;;;;5037254;28;20037;-88
2021/11/21 10:08:16;;;;;;;12.57;1.65;;;8.10;99.90;;;;;;5013655;28;20036;-85
2021/11/21 10:10:46;;;;;;;14.00;1.75;;;8.20;99.90;;;;;;5010281;28;20037;-86
2021/11/21 10:13:35;;;;;;;24.40;2.17;;;8.30;99.90;;;;;;5014313;28;20045;-86
2021/11/21 10:16:23;;;;;;;16.42;1.83;;;8.40;99.90;;;;;;5012722;28;20136;-86
2021/11/21 10:19:17;;;;;;;13.68;1.73;;;8.50;99.90;;;;;;5012634;28;20105;-86
2021/11/21 10:21:46;;;;;;;15.88;2.03;;;8.50;99.90;;;;;;4984428;28;20056;-86
2021/11/21 10:24:20;;;;;;;12.07;2.20;;;8.60;99.90;;;;;;5012306;28;20045;-86
2021/11/21 10:27:10;;;;;;;17.23;1.98;;;8.70;99.90;;;;;;5016446;28;20033;-86
2021/11/21 10:29:44;;;;;;;8.93;1.40;;;8.80;99.90;;;;;;4988880;28;20075;-84
2021/11/21 10:32:26;;;;;;;12.38;1.70;;;8.90;99.90;;;;;;5014494;28;20039;-87
2021/11/21 10:34:58;;;;;;;12.68;1.63;;;9.00;99.90;;;;;;5032335;28;20041;-85
2021/11/21 10:37:34;;;;;;;16.42;1.90;;;9.00;99.90;;;;;;5012961;28;20040;-86
2021/11/21 10:40:05;;;;;;;18.27;1.65;;;9.10;99.90;;;;;;5013793;28;20069;-88
2021/11/21 10:42:32;;;;;;;19.67;2.00;;;9.20;99.90;;;;;;5011457;28;20049;-87
2021/11/21 10:44:58;;;;;;;14.18;1.35;;;9.30;99.90;;;;;;4996159;28;20033;-86
2021/11/21 10:47:53;;;;;;;13.60;1.77;;;9.20;99.90;;;;;;5013247;28;20056;-88
2021/11/21 10:50:31;;;;;;;14.65;2.00;;;9.10;99.90;;;;;;4992783;28;20069;-87
2021/11/21 10:53:02;;;;;;;13.50;1.80;;;9.00;99.90;;;;;;5012387;28;20037;-85
2021/11/21 10:55:28;;;;;;;14.38;2.47;;;8.90;99.90;;;;;;5012967;28;20068;-86
2021/11/21 10:57:57;;;;;;;11.70;2.10;;;8.90;99.90;;;;;;4995611;28;20937;-87
2021/11/21 11:00:37;;;;;;;17.75;2.22;;;9.00;99.90;;;;;;4996063;28;20048;-87
2021/11/21 11:03:20;;;;;;;15.95;1.70;;;9.00;99.90;;;;;;5009697;28;20040;-87
2021/11/21 11:05:46;;;;;;;19.98;2.35;;;9.00;99.90;;;;;;5013067;28;20040;-88
2021/11/21 11:08:30;;;;;;;19.17;2.05;;;9.20;99.90;;;;;;5013942;28;20274;-87
2021/11/21 11:11:10;;;;;;;18.10;1.80;;;9.20;99.90;;;;;;5008913;28;20048;-88
2021/11/21 11:13:40;;;;;;;15.15;1.88;;;9.30;99.90;;;;;;5026161;28;20132;-87
2021/11/21 11:16:06;;;;;;;13.57;1.67;;;9.30;99.90;;;;;;5012607;28;20049;-90
2021/11/21 11:18:32;;;;;;;11.38;1.55;;;9.50;99.90;;;;;;5015525;28;20039;-89
2021/11/21 11:21:10;;;;;;;15.27;1.42;;;9.50;99.90;;;;;;4994658;28;20037;-88
2021/11/21 11:23:38;;;;;;;16.88;2.05;;;9.50;99.90;;;;;;5011534;28;20045;-85
2021/11/21 11:26:22;;;;;;;12.60;1.88;;;9.50;99.90;;;;;;5011160;28;20029;-88
2021/11/21 11:28:53;;;;;;;15.50;1.73;;;9.60;99.90;;;;;;5008004;28;20066;-88
2021/11/21 11:31:27;;;;;;;15.82;1.92;;;9.70;99.90;;;;;;5029999;28;20045;-88
2021/11/21 11:33:59;;;;;;;10.57;1.42;;;9.80;99.90;;;;;;5006514;28;20049;-89
2021/11/21 11:36:28;;;;;;;7.30;1.45;;;9.90;99.90;;;;;;5012637;28;20045;-87
2021/11/21 11:39:14;;;;;;;7.25;1.10;;;10.00;99.90;;;;;;5028594;28;20045;-87
2021/11/21 11:45:12;;;;;;;10.20;1.02;;;9.60;99.90;;;;;;5045795;28;20167;-90
2021/11/21 11:47:41;;;;;;;5.93;1.10;;;9.50;99.90;;;;;;5015274;28;20037;-89
2021/11/21 11:50:07;;;;;;;15.05;1.52;;;9.30;99.90;;;;;;5000500;28;20182;-87
2021/11/21 11:52:58;;;;;;;8.75;1.10;;;9.30;99.90;;;;;;4995761;28;20508;-86
2021/11/21 11:55:27;;;;;;;9.48;1.38;;;9.30;99.90;;;;;;5003868;28;20102;-88
2021/11/21 11:58:02;;;;;;;5.45;0.80;;;9.30;99.90;;;;;;5017194;28;20090;-91
2021/11/21 12:00:40;;;;;;;13.63;1.58;;;9.30;99.90;;;;;;5008014;28;20520;-86
2021/11/21 12:03:43;;;;;;;8.48;1.00;;;9.30;99.90;;;;;;5027511;28;20049;-88
2021/11/21 12:06:32;;;;;;;;;;;9.40;99.90;;;;;;5014362;28;20053;-90
2021/11/21 12:09:28;;;;;;;9.07;1.30;;;9.60;99.90;;;;;;5003524;28;19916;-88
2021/11/21 12:12:49;;;;;;;12.68;1.40;;;10.00;99.90;;;;;;5023525;28;20135;-88
2021/11/21 12:15:39;;;;;;;7.82;1.15;;;10.30;99.90;;;;;;5009037;28;20442;-89
2021/11/21 12:18:06;;;;;;;10.13;1.23;;;10.40;99.90;;;;;;5005798;28;20052;-87
2021/11/21 12:20:59;;;;;;;11.93;1.42;;;10.40;99.90;;;;;;5006313;28;20360;-88
2021/11/21 12:23:44;;;;;;;11.63;1.48;;;10.40;99.90;;;;;;5025185;28;20392;-88
2021/11/21 12:29:33;;;;;;;8.18;1.45;;;10.70;99.90;;;;;;4986807;28;20044;-88
2021/11/21 12:32:24;;;;;;;10.25;1.23;;;10.80;99.90;;;;;;5008020;28;20123;-87
2021/11/21 12:34:51;;;;;;;7.68;1.27;;;11.10;99.90;;;;;;5003042;28;20124;-89
2021/11/21 12:37:44;;;;;;;6.50;1.52;;;11.20;99.90;;;;;;4991330;28;20123;-88
2021/11/21 12:40:26;;;;;;;8.48;1.15;;;11.10;99.90;;;;;;5008699;28;20060;-89
2021/11/21 12:43:01;;;;;;;8.52;1.10;;;10.90;99.90;;;;;;5005029;28;20037;-87
2021/11/21 12:45:36;;;;;;;10.32;1.50;;;10.50;99.90;;;;;;5007830;28;20040;-85
2021/11/21 12:48:03;;;;;;;8.35;0.90;;;10.20;99.90;;;;;;5010831;28;20040;-89
2021/11/21 12:50:50;;;;;;;9.80;1.13;;;9.90;99.90;;;;;;5006247;28;20036;-88
2021/11/21 12:53:28;;;;;;;6.25;1.20;;;9.70;99.90;;;;;;5027110;28;20110;-88
2021/11/21 12:56:06;;;;;;;11.30;1.25;;;9.40;99.90;;;;;;5006479;28;20033;-86
2021/11/21 12:58:38;;;;;;;7.90;1.23;;;9.20;99.90;;;;;;5007134;28;20111;-87
2021/11/21 13:01:10;;;;;;;8.48;1.00;;;9.00;99.90;;;;;;4998782;28;20045;-86
2021/11/21 13:03:36;;;;;;;9.18;1.10;;;8.80;99.90;;;;;;5004692;28;20040;-85
2021/11/21 13:06:14;;;;;;;6.03;0.68;;;8.80;99.90;;;;;;4987464;28;20037;-85